Time;durP1;ratioP1;P1;durP2;ratioP2;P2;SDS_P1;SDS_P2;PMS_P1;PMS_P2;Temp;Humidity;BMP_temperature;BMP_pressure;BME280_temperature;BME280_humidity;BME280_pressure;Samples;Min_cycle;Max_cycle;Signal;HPM_P1;HPM_P2
2023/02/11 00:01:08;;;;;;;45.63;27.83;;;3.40;1.00;;;;;;6148016;23;20267;-84
2023/02/11 00:03:56;;;;;;;42.95;27.83;;;3.40;1.00;;;;;;6130470;23;20286;-82
2023/02/11 00:06:27;;;;;;;44.45;28.70;;;3.40;1.00;;;;;;6138915;23;20211;-85
2023/02/11 00:08:57;;;;;;;45.67;30.13;;;3.50;1.00;;;;;;6146714;23;20219;-83
2023/02/11 00:11:29;;;;;;;44.65;29.23;;;3.50;1.00;;;;;;6162211;23;20301;-82
2023/02/11 00:13:56;;;;;;;47.10;30.20;;;3.40;1.00;;;;;;6164546;23;20214;-85
2023/02/11 00:16:27;;;;;;;44.75;29.35;;;3.40;1.00;;;;;;6166759;23;20329;-83
2023/02/11 00:18:54;;;;;;;43.67;29.77;;;3.50;1.00;;;;;;6167031;23;20305;-84
2023/02/11 00:21:26;;;;;;;44.17;28.85;;;3.50;1.00;;;;;;6165352;23;20210;-84
2023/02/11 00:23:55;;;;;;;44.33;27.50;;;3.50;1.00;;;;;;6165196;23;20237;-85
2023/02/11 00:26:35;;;;;;;47.30;28.30;;;3.50;1.00;;;;;;6166275;23;20218;-85
2023/02/11 00:29:07;;;;;;;49.05;30.35;;;3.50;1.00;;;;;;6133001;23;20253;-84
2023/02/11 00:31:37;;;;;;;43.08;27.02;;;3.50;1.00;;;;;;6122206;23;20230;-84
2023/02/11 00:34:07;;;;;;;45.90;28.20;;;3.50;1.00;;;;;;6137112;23;20254;-84
2023/02/11 00:36:37;;;;;;;45.30;27.52;;;3.50;1.00;;;;;;6120118;23;20227;-83
2023/02/11 00:39:07;;;;;;;46.83;28.55;;;3.50;1.00;;;;;;6134014;23;20239;-85
2023/02/11 00:41:38;;;;;;;43.47;28.83;;;3.50;1.00;;;;;;6133568;23;20210;-84
2023/02/11 00:44:07;;;;;;;45.25;26.70;;;3.50;1.00;;;;;;6137761;23;20215;-82
2023/02/11 00:46:57;;;;;;;42.20;27.33;;;3.60;1.00;;;;;;6115736;23;20228;-82
2023/02/11 00:49:35;;;;;;;42.60;27.33;;;3.70;1.00;;;;;;6127716;23;20219;-84
2023/02/11 00:52:08;;;;;;;40.25;25.40;;;3.70;1.00;;;;;;6132765;23;20215;-82
2023/02/11 00:54:37;;;;;;;46.67;28.00;;;3.80;1.00;;;;;;6123666;23;20262;-82
2023/02/11 00:57:08;;;;;;;44.65;28.55;;;3.80;1.00;;;;;;6164344;23;20211;-83
2023/02/11 00:59:38;;;;;;;40.90;26.50;;;3.80;1.00;;;;;;6151715;23;20215;-84
2023/02/11 01:02:07;;;;;;;45.88;26.92;;;3.80;1.00;;;;;;6154550;23;20266;-82
2023/02/11 01:04:36;;;;;;;43.67;28.45;;;3.90;1.00;;;;;;6138100;23;20218;-82
2023/02/11 01:07:38;;;;;;;46.10;28.88;;;3.90;1.00;;;;;;6134871;23;20750;-83
2023/02/11 01:10:05;;;;;;;41.13;26.08;;;3.90;1.00;;;;;;6120947;23;20234;-83
2023/02/11 01:12:37;;;;;;;39.35;26.80;;;3.90;1.00;;;;;;6135123;23;20223;-84
2023/02/11 01:15:15;;;;;;;43.25;26.70;;;4.00;1.00;;;;;;6166587;23;20207;-83
2023/02/11 01:17:50;;;;;;;38.53;25.80;;;4.00;1.00;;;;;;6149810;23;20214;-82
2023/02/11 01:20:21;;;;;;;43.90;27.13;;;3.90;1.00;;;;;;6134235;23;20295;-83
2023/02/11 01:22:48;;;;;;;43.88;27.65;;;3.90;1.00;;;;;;6165720;23;20270;-83
2023/02/11 01:25:19;;;;;;;45.45;28.42;;;3.90;1.00;;;;;;6167064;23;20267;-83
2023/02/11 01:27:48;;;;;;;41.50;25.92;;;3.90;1.00;;;;;;6120612;23;20212;-84
2023/02/11 01:30:16;;;;;;;40.72;26.27;;;3.90;1.00;;;;;;6155389;23;20206;-84
2023/02/11 01:32:43;;;;;;;41.55;26.90;;;3.90;1.00;;;;;;6165129;23;21335;-85
2023/02/11 01:35:10;;;;;;;45.72;27.02;;;3.90;1.00;;;;;;6150390;23;20215;-85
2023/02/11 01:37:37;;;;;;;42.00;27.55;;;3.90;1.00;;;;;;6161973;23;20211;-84
2023/02/11 01:40:09;;;;;;;44.63;28.88;;;3.90;1.00;;;;;;6163775;23;20213;-83
2023/02/11 01:42:37;;;;;;;40.90;27.45;;;3.90;1.00;;;;;;6161751;23;20226;-83
2023/02/11 01:45:37;;;;;;;43.72;27.58;;;3.90;1.00;;;;;;6135198;23;20830;-83
2023/02/11 01:48:08;;;;;;;40.15;26.25;;;4.00;1.00;;;;;;6167949;23;20726;-83
2023/02/11 01:50:38;;;;;;;41.15;27.92;;;4.10;1.00;;;;;;6148825;23;20218;-83
2023/02/11 01:58:36;;;;;;;45.35;27.30;;;4.10;1.00;;;;;;6168456;23;20202;-84
2023/02/11 02:01:07;;;;;;;43.00;26.67;;;4.10;1.00;;;;;;6170748;23;20234;-83
2023/02/11 02:03:39;;;;;;;39.42;27.17;;;4.20;1.00;;;;;;6141424;23;20671;-83
2023/02/11 02:06:09;;;;;;;44.90;28.02;;;4.20;1.00;;;;;;6152917;23;20909;-81
2023/02/11 02:08:40;;;;;;;42.25;28.25;;;4.20;1.00;;;;;;6163359;23;20222;-83
2023/02/11 02:11:07;;;;;;;40.22;27.05;;;4.20;1.00;;;;;;6149460;23;20257;-82
2023/02/11 02:13:38;;;;;;;38.50;25.98;;;4.30;1.00;;;;;;6166169;23;20215;-81
2023/02/11 02:16:10;;;;;;;40.05;26.88;;;4.30;1.00;;;;;;6164766;23;20219;-82
2023/02/11 02:18:48;;;;;;;42.42;28.50;;;4.30;1.00;;;;;;6168109;23;20238;-81
2023/02/11 02:21:58;;;;;;;39.58;25.83;;;4.40;1.00;;;;;;6148409;23;20311;-83
2023/02/11 02:24:58;;;;;;;41.67;26.88;;;4.40;1.00;;;;;;6147380;23;20305;-83
2023/02/11 02:27:40;;;;;;;39.33;27.63;;;4.40;1.00;;;;;;6165653;23;20207;-83
2023/02/11 02:30:38;;;;;;;42.67;26.77;;;4.50;1.00;;;;;;6164091;23;20238;-83
2023/02/11 02:33:31;;;;;;;38.63;25.83;;;4.50;1.00;;;;;;6163456;23;20923;-82
2023/02/11 02:36:08;;;;;;;41.45;28.55;;;4.60;1.00;;;;;;6164249;23;20311;-83
2023/02/11 02:38:45;;;;;;;40.85;27.88;;;4.60;1.00;;;;;;6134967;23;20214;-83
2023/02/11 02:41:18;;;;;;;44.97;28.77;;;4.60;1.00;;;;;;6149035;23;20240;-83
2023/02/11 02:43:48;;;;;;;41.67;27.10;;;4.60;1.00;;;;;;6163548;23;20218;-84
2023/02/11 02:46:17;;;;;;;39.75;26.85;;;4.70;1.00;;;;;;6164513;23;20266;-84
2023/02/11 02:48:49;;;;;;;42.33;28.05;;;4.70;1.00;;;;;;6166043;23;20215;-84
2023/02/11 02:51:32;;;;;;;41.58;29.23;;;4.70;1.00;;;;;;6165063;23;20233;-83
2023/02/11 02:54:19;;;;;;;44.33;27.98;;;4.80;1.00;;;;;;6165325;23;20218;-84
2023/02/11 02:56:55;;;;;;;46.08;29.98;;;4.80;1.00;;;;;;6153544;23;20220;-83
2023/02/11 02:59:41;;;;;;;40.35;27.65;;;4.80;1.00;;;;;;6164935;23;20214;-83
2023/02/11 03:02:14;;;;;;;42.25;27.90;;;4.80;1.00;;;;;;6163687;23;21017;-84
2023/02/11 03:04:52;;;;;;;41.38;27.73;;;4.90;1.00;;;;;;6162399;23;20226;-83
2023/02/11 03:07:28;;;;;;;46.63;28.92;;;4.90;1.00;;;;;;6166477;23;20210;-84
2023/02/11 03:09:59;;;;;;;45.88;27.55;;;4.90;1.00;;;;;;6161901;23;20964;-83
2023/02/11 03:12:29;;;;;;;42.88;28.70;;;4.90;1.00;;;;;;6163832;23;20310;-83
2023/02/11 03:14:56;;;;;;;44.30;30.05;;;4.90;1.00;;;;;;6152173;23;20243;-83
2023/02/11 03:17:26;;;;;;;42.72;29.17;;;5.00;1.00;;;;;;6167311;23;20214;-84
2023/02/11 03:19:58;;;;;;;43.15;30.05;;;5.00;1.00;;;;;;6165161;23;20218;-83
2023/02/11 03:22:29;;;;;;;42.40;28.48;;;5.10;1.00;;;;;;6156977;23;20691;-82
2023/02/11 03:25:07;;;;;;;40.00;26.90;;;5.10;1.00;;;;;;6129942;23;20283;-82
2023/02/11 03:27:46;;;;;;;48.58;29.80;;;5.10;1.00;;;;;;6119763;23;21064;-85
2023/02/11 03:30:38;;;;;;;45.30;31.40;;;5.10;1.00;;;;;;6149969;23;20325;-83
2023/02/11 03:33:14;;;;;;;43.17;28.40;;;5.20;1.00;;;;;;6146984;23;20210;-83
2023/02/11 03:35:48;;;;;;;42.97;30.25;;;5.20;1.00;;;;;;6132767;23;20687;-83
2023/02/11 03:38:20;;;;;;;47.25;30.90;;;5.20;1.00;;;;;;6162010;23;20222;-80
2023/02/11 03:40:47;;;;;;;47.75;29.42;;;5.20;1.00;;;;;;6149788;23;20770;-85
2023/02/11 03:43:20;;;;;;;44.20;29.92;;;5.20;1.00;;;;;;6164087;23;20210;-84
2023/02/11 03:45:50;;;;;;;42.53;29.30;;;5.30;1.00;;;;;;6163740;23;20191;-84
2023/02/11 03:48:22;;;;;;;39.22;29.42;;;5.30;1.00;;;;;;6165152;23;20214;-84
2023/02/11 03:50:54;;;;;;;43.17;30.90;;;5.30;1.00;;;;;;6163108;23;20289;-84
2023/02/11 03:53:26;;;;;;;47.28;30.95;;;5.30;1.00;;;;;;6163276;23;20219;-81
2023/02/11 03:55:56;;;;;;;46.40;29.13;;;5.30;1.00;;;;;;6162566;23;20270;-83
2023/02/11 03:58:23;;;;;;;43.50;29.70;;;5.30;1.00;;;;;;6163268;23;20218;-83
2023/02/11 04:00:50;;;;;;;49.17;32.13;;;5.30;1.00;;;;;;6164990;23;20214;-83
2023/02/11 04:03:17;;;;;;;43.20;31.13;;;5.30;1.00;;;;;;6163226;23;20206;-84
2023/02/11 04:05:44;;;;;;;44.30;29.10;;;5.40;1.00;;;;;;6162649;23;20203;-84
2023/02/11 04:08:13;;;;;;;47.42;31.02;;;5.40;1.00;;;;;;6163690;23;20207;-80
2023/02/11 04:10:42;;;;;;;47.40;31.02;;;5.40;1.00;;;;;;6159204;23;20210;-83
2023/02/11 04:13:09;;;;;;;43.75;30.15;;;5.40;1.00;;;;;;6134862;23;21068;-83
2023/02/11 04:15:39;;;;;;;48.20;30.95;;;5.40;1.00;;;;;;6116981;23;20693;-83
2023/02/11 04:18:08;;;;;;;51.13;34.47;;;5.40;1.00;;;;;;6163541;23;20919;-84
2023/02/11 04:20:37;;;;;;;43.45;31.50;;;5.40;1.00;;;;;;6165539;23;20283;-83
2023/02/11 04:23:09;;;;;;;49.60;30.70;;;5.40;1.00;;;;;;6163797;23;20211;-83
2023/02/11 04:25:39;;;;;;;54.08;32.80;;;5.40;1.00;;;;;;6149132;23;20219;-83
2023/02/11 04:28:08;;;;;;;50.13;33.65;;;5.40;1.00;;;;;;6154871;23;20211;-84
2023/02/11 04:30:36;;;;;;;48.80;32.10;;;5.40;1.00;;;;;;6136212;23;20215;-84
2023/02/11 04:33:03;;;;;;;46.20;30.45;;;5.40;1.00;;;;;;6165243;23;20223;-84
2023/02/11 04:35:30;;;;;;;48.70;32.90;;;5.40;1.00;;;;;;6162767;23;20234;-83
2023/02/11 04:37:58;;;;;;;52.60;34.75;;;5.40;1.00;;;;;;6163872;23;20266;-84
2023/02/11 04:40:27;;;;;;;48.58;34.47;;;5.40;1.00;;;;;;6152735;23;20215;-82
2023/02/11 04:42:55;;;;;;;49.03;34.63;;;5.40;1.00;;;;;;6162207;23;20214;-84
2023/02/11 04:45:24;;;;;;;51.45;34.72;;;5.40;1.00;;;;;;6162324;23;20706;-84
2023/02/11 04:47:54;;;;;;;49.40;33.90;;;5.40;1.00;;;;;;6162109;23;20221;-83
2023/02/11 04:50:21;;;;;;;53.25;35.97;;;5.40;1.00;;;;;;6163791;23;20215;-82
2023/02/11 04:52:49;;;;;;;51.33;34.88;;;5.40;1.00;;;;;;6164021;23;20687;-84
2023/02/11 04:55:17;;;;;;;50.58;34.08;;;5.40;1.00;;;;;;6136557;23;20210;-84
2023/02/11 04:57:44;;;;;;;57.47;33.28;;;5.40;1.00;;;;;;6150533;23;20223;-84
2023/02/11 05:00:14;;;;;;;52.20;33.50;;;5.40;1.00;;;;;;6150952;23;20663;-83
2023/02/11 05:02:56;;;;;;;54.28;35.58;;;5.40;1.00;;;;;;6134053;23;20222;-83
2023/02/11 05:05:33;;;;;;;55.53;35.90;;;5.40;1.00;;;;;;6127193;23;20242;-83
2023/02/11 05:08:07;;;;;;;50.15;33.80;;;5.40;1.00;;;;;;6145735;23;21041;-83
2023/02/11 05:10:48;;;;;;;55.22;34.70;;;5.40;1.00;;;;;;6173522;23;20218;-78
2023/02/11 05:13:19;;;;;;;51.70;35.60;;;5.30;1.00;;;;;;6154315;23;20254;-84
2023/02/11 05:15:48;;;;;;;48.55;34.65;;;5.30;1.00;;;;;;6166824;23;20510;-79
2023/02/11 05:18:17;;;;;;;57.08;36.55;;;5.30;1.00;;;;;;6175100;23;20218;-81
2023/02/11 05:20:48;;;;;;;55.33;36.20;;;5.40;1.00;;;;;;6172248;23;20214;-78
2023/02/11 05:23:17;;;;;;;58.20;36.22;;;5.40;1.00;;;;;;6146791;23;20222;-81
2023/02/11 05:25:48;;;;;;;58.15;36.80;;;5.40;1.00;;;;;;6134795;23;20227;-84
2023/02/11 05:28:35;;;;;;;51.42;34.03;;;5.40;1.00;;;;;;6145577;23;20222;-82
2023/02/11 05:31:19;;;;;;;53.05;36.00;;;5.40;1.00;;;;;;6174932;23;20214;-81
2023/02/11 05:33:47;;;;;;;50.33;35.38;;;5.40;1.00;;;;;;6133924;23;20214;-78
2023/02/11 05:36:17;;;;;;;54.50;36.40;;;5.40;1.00;;;;;;6154607;23;20207;-82
2023/02/11 05:38:50;;;;;;;51.15;33.85;;;5.40;1.00;;;;;;6152773;23;20216;-79
2023/02/11 05:41:20;;;;;;;55.80;36.85;;;5.40;1.00;;;;;;6148157;23;20222;-78
2023/02/11 05:43:58;;;;;;;49.92;35.53;;;5.40;1.00;;;;;;6150125;23;20211;-81
2023/02/11 05:46:48;;;;;;;52.47;34.90;;;5.50;1.00;;;;;;6166483;23;20191;-81
2023/02/11 05:49:18;;;;;;;55.80;36.13;;;5.40;1.00;;;;;;6165557;23;20199;-81
2023/02/11 05:51:49;;;;;;;57.88;37.22;;;5.40;1.00;;;;;;6156198;23;20230;-81
2023/02/11 05:54:19;;;;;;;56.72;38.15;;;5.40;1.00;;;;;;6143791;23;20901;-79
2023/02/11 05:56:47;;;;;;;59.28;37.65;;;5.40;1.00;;;;;;6140514;23;20984;-83
2023/02/11 05:59:27;;;;;;;58.25;36.58;;;5.40;1.00;;;;;;6173390;23;20243;-80
2023/02/11 06:02:09;;;;;;;59.25;37.85;;;5.40;1.00;;;;;;6143511;23;20270;-81
2023/02/11 06:04:37;;;;;;;55.40;37.17;;;5.40;1.00;;;;;;6164935;23;20195;-84
2023/02/11 06:07:18;;;;;;;58.63;39.60;;;5.40;1.00;;;;;;6159539;23;21027;-84
2023/02/11 06:10:07;;;;;;;59.90;37.33;;;5.40;1.00;;;;;;6148426;23;20210;-81
2023/02/11 06:12:38;;;;;;;56.03;37.55;;;5.50;1.00;;;;;;6033074;23;20213;-83
2023/02/11 06:15:27;;;;;;;61.78;39.13;;;5.60;1.00;;;;;;6029409;23;20210;-83
2023/02/11 06:17:57;;;;;;;58.25;39.17;;;5.60;1.00;;;;;;6051823;23;20233;-79
2023/02/11 06:20:28;;;;;;;54.30;38.67;;;5.60;1.00;;;;;;6036870;23;20218;-80
2023/02/11 06:23:00;;;;;;;59.20;41.28;;;5.60;1.00;;;;;;6173892;23;20301;-78
2023/02/11 06:25:27;;;;;;;58.15;40.42;;;5.60;1.00;;;;;;6160420;23;20194;-79
2023/02/11 06:28:06;;;;;;;65.80;40.83;;;5.60;1.00;;;;;;6173625;23;20230;-82
2023/02/11 06:30:59;;;;;;;67.43;42.47;;;5.60;1.00;;;;;;6160711;23;21039;-80
2023/02/11 06:33:48;;;;;;;63.17;40.53;;;5.70;1.00;;;;;;6141222;23;20215;-80
2023/02/11 06:36:20;;;;;;;63.28;41.55;;;5.60;1.00;;;;;;6162969;23;20199;-85
2023/02/11 06:38:48;;;;;;;62.60;39.88;;;5.60;1.00;;;;;;6154268;23;20278;-87
2023/02/11 06:41:20;;;;;;;60.47;40.65;;;5.60;1.00;;;;;;6145841;23;20203;-85
2023/02/11 06:43:49;;;;;;;66.72;40.95;;;5.70;1.00;;;;;;6131169;23;20274;-81
2023/02/11 06:46:18;;;;;;;60.47;41.20;;;5.70;1.00;;;;;;6161864;23;20206;-80
2023/02/11 06:48:49;;;;;;;62.50;39.90;;;5.70;1.00;;;;;;6150286;23;20211;-79
2023/02/11 06:51:18;;;;;;;65.75;41.45;;;5.70;1.00;;;;;;6161752;23;20297;-78
2023/02/11 06:53:50;;;;;;;63.45;38.55;;;5.70;1.00;;;;;;6119420;23;20215;-82
2023/02/11 06:56:20;;;;;;;64.97;42.38;;;5.80;1.00;;;;;;6157257;23;20283;-83
2023/02/11 06:58:48;;;;;;;66.43;40.78;;;5.80;1.00;;;;;;6140643;23;20229;-81
2023/02/11 07:01:20;;;;;;;61.40;41.03;;;5.80;1.00;;;;;;6154917;23;20211;-84
2023/02/11 07:03:49;;;;;;;61.22;40.50;;;5.80;1.00;;;;;;6115293;23;20231;-81
2023/02/11 07:06:20;;;;;;;73.00;40.30;;;5.80;1.00;;;;;;6147376;23;20242;-84
2023/02/11 07:08:50;;;;;;;72.30;44.20;;;5.80;1.00;;;;;;6154859;23;20214;-84
2023/02/11 07:11:19;;;;;;;60.00;40.28;;;5.90;1.00;;;;;;6138094;23;20215;-83
2023/02/11 07:13:48;;;;;;;57.15;37.80;;;5.90;1.00;;;;;;6146946;23;20251;-83
2023/02/11 07:16:19;;;;;;;65.65;41.33;;;5.90;1.00;;;;;;6147715;23;20210;-82
2023/02/11 07:18:50;;;;;;;62.05;40.90;;;5.90;1.00;;;;;;6135691;23;20202;-82
2023/02/11 07:24:20;;;;;;;62.47;39.20;;;5.90;1.00;;;;;;6130283;23;20214;-83
2023/02/11 07:26:50;;;;;;;64.70;41.03;;;5.90;1.00;;;;;;6117545;23;20214;-82
2023/02/11 07:29:20;;;;;;;66.75;42.00;;;5.90;1.00;;;;;;6135284;23;20207;-83
2023/02/11 07:31:49;;;;;;;61.33;39.70;;;6.00;1.00;;;;;;6150975;23;20203;-83
2023/02/11 07:34:36;;;;;;;61.03;40.97;;;6.00;1.00;;;;;;6148938;23;20266;-82
2023/02/11 07:37:09;;;;;;;65.13;40.78;;;6.00;1.00;;;;;;6148840;23;20258;-82
2023/02/11 07:39:39;;;;;;;67.53;43.42;;;6.00;1.00;;;;;;6117411;23;20199;-83
2023/02/11 07:44:58;;;;;;;63.15;41.50;;;6.00;1.00;;;;;;6141438;23;20230;-83
2023/02/11 07:47:28;;;;;;;66.30;42.80;;;6.00;1.00;;;;;;6125250;23;20207;-82
2023/02/11 07:49:59;;;;;;;63.30;41.63;;;6.00;1.00;;;;;;6134665;23;20868;-82
2023/02/11 07:52:50;;;;;;;63.78;39.67;;;6.00;1.00;;;;;;6117939;23;20295;-84
2023/02/11 07:55:20;;;;;;;59.08;39.83;;;6.00;1.00;;;;;;6125775;23;20278;-82
2023/02/11 07:57:51;;;;;;;62.42;39.25;;;6.10;1.00;;;;;;6131691;23;20787;-83
2023/02/11 08:00:28;;;;;;;66.45;42.65;;;6.10;1.00;;;;;;6146935;23;20211;-82
2023/02/11 08:03:00;;;;;;;61.58;40.83;;;6.10;1.00;;;;;;6132269;23;20215;-85
2023/02/11 08:05:39;;;;;;;61.90;40.88;;;6.20;1.00;;;;;;6121023;23;20215;-85
2023/02/11 08:08:09;;;;;;;66.05;39.80;;;6.20;1.00;;;;;;6132215;23;20728;-82
2023/02/11 08:10:36;;;;;;;61.25;39.35;;;6.20;1.00;;;;;;6118672;23;20239;-82
2023/02/11 08:13:09;;;;;;;62.85;41.42;;;6.20;1.00;;;;;;6132753;23;20262;-81
2023/02/11 08:15:36;;;;;;;67.70;41.17;;;6.30;1.00;;;;;;6142555;23;20219;-79
2023/02/11 08:18:06;;;;;;;61.50;39.80;;;6.30;1.00;;;;;;6163313;23;20215;-80
2023/02/11 08:20:36;;;;;;;63.80;37.92;;;6.30;1.00;;;;;;6161666;23;20218;-82
2023/02/11 08:23:13;;;;;;;66.10;38.88;;;6.40;1.00;;;;;;6144121;23;20289;-81
2023/02/11 08:25:40;;;;;;;65.60;42.38;;;6.40;1.00;;;;;;6119182;23;20242;-82
2023/02/11 08:28:09;;;;;;;64.38;42.33;;;6.50;1.00;;;;;;6146810;23;20237;-81
2023/02/11 08:30:38;;;;;;;64.60;41.70;;;6.50;1.00;;;;;;6132654;23;20222;-82
2023/02/11 08:33:07;;;;;;;56.53;38.55;;;6.50;1.00;;;;;;6160256;23;20250;-82
2023/02/11 08:35:48;;;;;;;64.45;41.15;;;6.60;1.00;;;;;;6135454;23;20218;-82
2023/02/11 08:38:17;;;;;;;58.47;39.05;;;6.60;1.00;;;;;;6161317;23;20221;-82
2023/02/11 08:40:50;;;;;;;62.55;40.03;;;6.60;1.00;;;;;;6130779;23;20272;-82
2023/02/11 08:43:16;;;;;;;61.25;40.83;;;6.60;1.00;;;;;;6139093;23;20211;-82
2023/02/11 08:45:47;;;;;;;58.80;39.90;;;6.60;1.00;;;;;;6148304;23;20274;-81
2023/02/11 08:48:16;;;;;;;62.63;38.00;;;6.60;1.00;;;;;;6150349;23;20231;-82
2023/02/11 08:50:57;;;;;;;61.80;40.55;;;6.60;1.00;;;;;;6117043;23;20220;-81
2023/02/11 08:53:37;;;;;;;66.28;38.95;;;6.60;1.00;;;;;;6141279;23;20219;-80
2023/02/11 08:56:19;;;;;;;60.97;39.53;;;6.60;1.00;;;;;;6129376;23;20210;-83
2023/02/11 08:58:50;;;;;;;64.30;38.38;;;6.60;1.00;;;;;;6090794;23;20987;-81
2023/02/11 09:01:19;;;;;;;61.55;38.17;;;6.70;1.00;;;;;;6162944;23;20229;-81
2023/02/11 09:03:48;;;;;;;56.53;37.20;;;6.70;1.00;;;;;;6160173;23;20211;-81
2023/02/11 09:06:17;;;;;;;59.88;38.72;;;6.70;1.00;;;;;;6163233;23;20219;-82
2023/02/11 09:08:47;;;;;;;61.20;38.53;;;6.80;1.00;;;;;;6162020;23;20295;-82
2023/02/11 09:11:15;;;;;;;59.92;38.42;;;6.70;1.00;;;;;;6163287;23;20280;-82
2023/02/11 09:13:44;;;;;;;55.95;36.58;;;6.80;1.00;;;;;;6162089;23;20281;-83
2023/02/11 09:16:21;;;;;;;57.28;36.92;;;6.70;1.00;;;;;;6135773;23;20806;-82
2023/02/11 09:18:49;;;;;;;64.38;38.28;;;6.70;1.00;;;;;;6135869;23;20306;-83
2023/02/11 09:21:20;;;;;;;59.72;38.22;;;6.80;1.00;;;;;;6163297;23;20216;-82
2023/02/11 09:23:48;;;;;;;60.83;37.58;;;6.80;1.00;;;;;;6137107;23;20784;-82
2023/02/11 09:26:17;;;;;;;57.13;36.33;;;6.80;1.00;;;;;;6163338;23;20215;-82
2023/02/11 09:28:47;;;;;;;56.50;35.97;;;6.80;1.00;;;;;;6161822;23;20298;-82
2023/02/11 09:31:18;;;;;;;52.10;36.10;;;6.80;1.00;;;;;;6152847;23;20223;-83
2023/02/11 09:33:48;;;;;;;56.05;37.75;;;6.90;1.00;;;;;;6163380;23;20246;-82
2023/02/11 09:36:39;;;;;;;52.83;35.25;;;6.90;1.00;;;;;;6130747;23;20915;-83
2023/02/11 09:39:21;;;;;;;52.15;34.38;;;6.90;1.00;;;;;;6103559;23;20215;-83
2023/02/11 09:42:16;;;;;;;54.22;36.90;;;6.90;1.00;;;;;;6129675;23;20215;-82
2023/02/11 09:44:48;;;;;;;57.72;35.20;;;6.90;1.00;;;;;;6128008;23;20211;-79
2023/02/11 09:47:28;;;;;;;53.58;36.85;;;6.90;1.00;;;;;;6130571;23;20295;-83
2023/02/11 09:50:08;;;;;;;58.45;36.20;;;6.90;1.00;;;;;;6162806;23;20215;-83
2023/02/11 09:52:43;;;;;;;54.03;36.22;;;6.90;1.00;;;;;;6117435;23;20235;-84
2023/02/11 09:55:23;;;;;;;60.70;35.83;;;6.90;1.00;;;;;;6131106;23;20262;-82
2023/02/11 09:57:50;;;;;;;58.53;35.30;;;6.90;1.00;;;;;;6158967;23;20672;-84
2023/02/11 10:00:31;;;;;;;;;;;;;;;;;;;;;
2023/02/11 10:03:57;;;;;;;51.83;35.47;;;7.00;1.00;;;;;;6128377;23;49002;-84
2023/02/11 10:06:58;;;;;;;55.58;37.03;;;7.00;1.00;;;;;;6129000;23;20552;-83
2023/02/11 10:09:57;;;;;;;56.33;36.00;;;7.00;1.00;;;;;;6117480;23;20233;-82
2023/02/11 10:15:37;;;;;;;52.38;34.53;;;7.10;1.00;;;;;;6119768;23;20317;-80
2023/02/11 10:18:37;;;;;;;53.42;35.40;;;7.10;1.00;;;;;;6126473;23;20873;-81
2023/02/11 10:21:27;;;;;;;51.78;33.92;;;7.10;1.00;;;;;;6130324;23;20214;-81
2023/02/11 10:24:09;;;;;;;49.97;31.75;;;7.20;1.00;;;;;;6126641;23;20211;-80
2023/02/11 10:26:40;;;;;;;52.55;34.83;;;7.20;1.00;;;;;;6124152;23;20284;-80
2023/02/11 10:29:21;;;;;;;48.35;32.85;;;7.20;1.00;;;;;;6131977;23;20215;-81
2023/02/11 10:31:51;;;;;;;50.25;33.88;;;7.20;1.00;;;;;;6127874;23;20577;-77
2023/02/11 10:34:20;;;;;;;50.20;32.45;;;7.20;1.00;;;;;;6131602;23;20217;-80
2023/02/11 10:36:51;;;;;;;53.92;34.22;;;7.20;1.00;;;;;;6110594;23;20736;-79
2023/02/11 10:39:20;;;;;;;55.00;33.63;;;7.10;1.00;;;;;;6142019;23;21021;-80
2023/02/11 10:41:59;;;;;;;51.40;34.15;;;7.10;1.00;;;;;;6114150;23;20243;-79
2023/02/11 10:44:40;;;;;;;54.88;31.98;;;7.20;1.00;;;;;;6110757;23;20304;-78
2023/02/11 10:47:17;;;;;;;49.78;31.80;;;7.10;1.00;;;;;;6130258;23;20976;-79
2023/02/11 10:49:56;;;;;;;49.17;31.58;;;7.20;1.00;;;;;;6112486;23;21035;-80
2023/02/11 10:52:30;;;;;;;48.08;33.22;;;7.20;1.00;;;;;;6127737;23;20281;-81
2023/02/11 10:55:07;;;;;;;53.10;35.45;;;7.20;1.00;;;;;;6143763;23;20216;-81
2023/02/11 10:57:49;;;;;;;48.80;33.25;;;7.20;1.00;;;;;;6108797;23;20287;-80
2023/02/11 11:00:37;;;;;;;54.78;33.17;;;7.20;1.00;;;;;;6142907;23;20230;-79
2023/02/11 11:03:27;;;;;;;53.80;32.35;;;7.20;1.00;;;;;;6129096;23;20936;-82
2023/02/11 11:06:09;;;;;;;50.15;33.60;;;7.20;1.00;;;;;;6129101;23;20212;-80
2023/02/11 11:09:07;;;;;;;52.20;32.33;;;7.20;1.00;;;;;;6124618;23;20360;-81
2023/02/11 11:11:53;;;;;;;54.22;32.00;;;7.20;1.00;;;;;;6140492;23;20226;-80
2023/02/11 11:14:24;;;;;;;53.78;32.03;;;7.10;1.00;;;;;;6125213;23;20208;-82
2023/02/11 11:17:01;;;;;;;54.33;33.00;;;7.10;1.00;;;;;;6131223;23;20219;-79
2023/02/11 11:19:30;;;;;;;59.35;33.00;;;7.20;1.00;;;;;;6139590;23;20423;-82
2023/02/11 11:21:59;;;;;;;53.10;34.90;;;7.20;1.00;;;;;;6129551;23;20767;-79
2023/02/11 11:24:39;;;;;;;46.58;32.30;;;7.10;1.00;;;;;;6126758;23;20207;-82
2023/02/11 11:27:20;;;;;;;51.42;32.70;;;7.10;1.00;;;;;;6125527;23;20211;-82
2023/02/11 11:29:51;;;;;;;46.67;30.77;;;7.10;1.00;;;;;;6142028;23;20253;-81
2023/02/11 11:32:28;;;;;;;55.05;32.03;;;7.10;1.00;;;;;;6129416;23;20218;-82
2023/02/11 11:35:38;;;;;;;47.97;31.80;;;7.10;1.00;;;;;;6130597;23;20279;-80
2023/02/11 11:38:37;;;;;;;49.22;29.88;;;7.10;1.00;;;;;;6127075;23;20222;-80
2023/02/11 11:41:19;;;;;;;46.95;32.75;;;7.20;1.00;;;;;;6134172;23;20287;-78
2023/02/11 11:44:20;;;;;;;47.50;29.95;;;7.20;1.00;;;;;;6131812;23;20269;-79
2023/02/11 11:46:57;;;;;;;44.50;28.75;;;7.20;1.00;;;;;;6108660;23;20220;-80
2023/02/11 11:49:30;;;;;;;46.92;30.98;;;7.20;1.00;;;;;;6127799;23;21037;-80
2023/02/11 11:52:09;;;;;;;44.40;29.20;;;7.30;1.00;;;;;;6161442;23;20252;-81
2023/02/11 11:54:40;;;;;;;45.35;28.92;;;7.30;1.00;;;;;;6125802;23;20216;-78
2023/02/11 11:57:20;;;;;;;50.47;30.30;;;7.30;1.00;;;;;;6128257;23;20783;-79
2023/02/11 11:59:50;;;;;;;44.25;27.50;;;7.30;1.00;;;;;;6116455;23;21016;-78
2023/02/11 12:02:40;;;;;;;43.95;27.52;;;7.30;1.00;;;;;;6144595;23;20237;-79
2023/02/11 12:05:13;;;;;;;43.60;25.85;;;7.30;1.00;;;;;;6143395;23;20330;-78
2023/02/11 12:07:53;;;;;;;45.25;29.55;;;7.30;1.00;;;;;;6160224;23;20279;-81
2023/02/11 12:10:44;;;;;;;38.75;26.23;;;7.40;1.00;;;;;;6125437;23;20297;-80
2023/02/11 12:13:30;;;;;;;49.37;31.70;;;7.40;1.00;;;;;;6142150;23;20212;-78
2023/02/11 12:16:15;;;;;;;39.35;25.60;;;7.50;1.00;;;;;;6141189;23;20463;-78
2023/02/11 12:19:20;;;;;;;37.80;25.13;;;7.50;1.00;;;;;;6156681;23;20248;-80
2023/02/11 12:22:07;;;;;;;43.80;25.85;;;7.50;1.00;;;;;;6122662;23;20217;-81
2023/02/11 12:25:19;;;;;;;38.10;25.35;;;7.50;1.00;;;;;;6139460;23;20680;-80
2023/02/11 12:28:01;;;;;;;37.67;24.42;;;7.50;1.00;;;;;;6113445;23;20988;-81
2023/02/11 12:30:52;;;;;;;37.25;24.95;;;7.60;1.00;;;;;;6143174;23;20219;-81
2023/02/11 12:33:31;;;;;;;37.42;24.10;;;7.60;1.00;;;;;;6158958;23;20234;-81
2023/02/11 12:36:06;;;;;;;36.05;22.90;;;7.70;1.00;;;;;;6157608;23;20283;-81
2023/02/11 12:38:56;;;;;;;34.63;23.87;;;7.80;1.00;;;;;;6156452;23;20225;-80
2023/02/11 12:44:48;;;;;;;34.78;22.45;;;7.70;1.00;;;;;;6145334;23;20214;-83
2023/02/11 12:50:37;;;;;;;37.22;21.30;;;7.80;1.00;;;;;;6128214;23;20287;-81
2023/02/11 12:56:37;;;;;;;36.25;22.70;;;7.70;1.00;;;;;;6111663;23;21012;-81
2023/02/11 12:59:20;;;;;;;33.42;20.90;;;7.70;1.00;;;;;;6144885;23;20226;-82
2023/02/11 13:01:51;;;;;;;32.53;20.75;;;7.70;1.00;;;;;;6109067;23;20223;-82
2023/02/11 13:04:28;;;;;;;35.08;20.38;;;7.70;1.00;;;;;;6157912;23;20300;-81
2023/02/11 13:07:20;;;;;;;35.30;21.65;;;7.70;1.00;;;;;;6133358;23;20302;-82
2023/02/11 13:09:57;;;;;;;36.77;20.63;;;7.80;1.00;;;;;;6130855;23;20227;-82
2023/02/11 13:27:50;;;;;;;;;;;;;;;;;;;;;
2023/02/11 13:30:33;;;;;;;35.25;21.25;;;7.90;1.00;;;;;;5802051;24;50010;-82
2023/02/11 13:33:20;;;;;;;34.07;22.00;;;7.90;1.00;;;;;;5847679;24;20226;-82
2023/02/11 13:36:16;;;;;;;32.40;23.07;;;7.90;1.00;;;;;;5901515;24;20464;-82
2023/02/11 13:39:11;;;;;;;39.38;24.88;;;7.90;1.00;;;;;;5964584;23;20447;-86
2023/02/11 13:41:48;;;;;;;33.20;21.92;;;7.90;1.00;;;;;;6008172;23;20236;-82
2023/02/11 13:44:39;;;;;;;36.92;22.17;;;8.00;1.00;;;;;;6058490;23;20266;-85
2023/02/11 13:48:00;;;;;;;38.08;22.05;;;8.00;1.00;;;;;;6041849;23;20221;-87
2023/02/11 14:00:00;;;;;;;33.53;22.30;;;7.90;1.00;;;;;;5812831;24;20754;-80
2023/02/11 14:11:40;;;;;;;;;;;;;;;;;;;;;
2023/02/11 14:14:30;;;;;;;33.30;23.70;;;7.90;1.00;;;;;;6036626;23;50246;-83
2023/02/11 14:17:49;;;;;;;36.70;22.77;;;7.90;1.00;;;;;;6055773;23;20576;-81
2023/02/11 14:21:10;;;;;;;33.40;23.02;;;7.90;1.00;;;;;;6041702;23;20227;-82
2023/02/11 14:23:41;;;;;;;33.22;22.35;;;7.90;1.00;;;;;;5912954;23;20213;-85
2023/02/11 14:26:48;;;;;;;32.72;21.75;;;7.80;1.00;;;;;;6038353;23;20293;-80
2023/02/11 14:32:50;;;;;;;33.58;21.90;;;7.90;1.00;;;;;;6010627;23;20254;-81
2023/02/11 14:35:34;;;;;;;33.88;21.77;;;7.80;1.00;;;;;;6057525;23;20226;-80
2023/02/11 14:38:24;;;;;;;31.65;20.25;;;7.80;1.00;;;;;;6149302;23;20269;-82